sensor_id;sensor_type;location;lat;lon;timestamp;temperature;humidity
4548;DHT22;2286;51.570;7.090;2022-12-18T00:00:44;-8.50;99.90
4548;DHT22;2286;51.570;7.090;2022-12-18T00:03:14;-8.50;99.90
4548;DHT22;2286;51.570;7.090;2022-12-18T00:05:46;-8.60;99.90
4548;DHT22;2286;51.570;7.090;2022-12-18T00:08:14;-8.60;99.90
4548;DHT22;2286;51.570;7.090;2022-12-18T00:10:41;-8.50;99.90
4548;DHT22;2286;51.570;7.090;2022-12-18T00:13:08;-8.50;99.90
4548;DHT22;2286;51.570;7.090;2022-12-18T00:15:35;-8.50;99.90
4548;DHT22;2286;51.570;7.090;2022-12-18T00:18:02;-8.50;99.90
4548;DHT22;2286;51.570;7.090;2022-12-18T00:20:30;-8.50;99.90
4548;DHT22;2286;51.570;7.090;2022-12-18T00:22:57;-8.60;99.90
4548;DHT22;2286;51.570;7.090;2022-12-18T00:25:24;-8.60;99.90
4548;DHT22;2286;51.570;7.090;2022-12-18T00:27:51;-8.70;99.90
4548;DHT22;2286;51.570;7.090;2022-12-18T00:30:18;-8.70;99.90
4548;DHT22;2286;51.570;7.090;2022-12-18T00:32:45;-8.70;99.90
4548;DHT22;2286;51.570;7.090;2022-12-18T00:35:12;-8.70;99.90
4548;DHT22;2286;51.570;7.090;2022-12-18T00:37:40;-8.80;99.90
4548;DHT22;2286;51.570;7.090;2022-12-18T00:40:08;-8.80;99.90
4548;DHT22;2286;51.570;7.090;2022-12-18T00:42:35;-8.80;99.90
4548;DHT22;2286;51.570;7.090;2022-12-18T00:45:16;-8.80;99.90
4548;DHT22;2286;51.570;7.090;2022-12-18T00:47:43;-8.80;99.90
4548;DHT22;2286;51.570;7.090;2022-12-18T00:50:09;-8.90;99.90
4548;DHT22;2286;51.570;7.090;2022-12-18T00:52:36;-8.80;99.90
4548;DHT22;2286;51.570;7.090;2022-12-18T00:55:07;-8.90;74.20
4548;DHT22;2286;51.570;7.090;2022-12-18T00:57:34;-8.90;13.10
4548;DHT22;2286;51.570;7.090;2022-12-18T01:00:01;-8.80;99.90
4548;DHT22;2286;51.570;7.090;2022-12-18T01:02:28;-8.80;99.90
4548;DHT22;2286;51.570;7.090;2022-12-18T01:04:55;-8.70;99.90
4548;DHT22;2286;51.570;7.090;2022-12-18T01:07:22;-8.80;99.90
4548;DHT22;2286;51.570;7.090;2022-12-18T01:09:49;-8.90;99.90
4548;DHT22;2286;51.570;7.090;2022-12-18T01:12:17;-9.00;1.00
4548;DHT22;2286;51.570;7.090;2022-12-18T01:14:44;-9.00;1.00
4548;DHT22;2286;51.570;7.090;2022-12-18T01:17:11;-9.00;1.00
4548;DHT22;2286;51.570;7.090;2022-12-18T01:19:38;-9.00;1.00
4548;DHT22;2286;51.570;7.090;2022-12-18T01:22:05;-9.00;13.50
4548;DHT22;2286;51.570;7.090;2022-12-18T01:24:31;-9.00;1.00
4548;DHT22;2286;51.570;7.090;2022-12-18T01:26:58;-9.00;1.00
4548;DHT22;2286;51.570;7.090;2022-12-18T01:29:26;-8.90;63.00
4548;DHT22;2286;51.570;7.090;2022-12-18T01:31:55;-8.90;99.90
4548;DHT22;2286;51.570;7.090;2022-12-18T01:34:21;-8.90;95.00
4548;DHT22;2286;51.570;7.090;2022-12-18T01:36:48;-9.00;17.30
4548;DHT22;2286;51.570;7.090;2022-12-18T01:39:17;-9.00;11.00
4548;DHT22;2286;51.570;7.090;2022-12-18T01:41:45;-8.90;16.50
4548;DHT22;2286;51.570;7.090;2022-12-18T01:44:58;-8.90;41.90
4548;DHT22;2286;51.570;7.090;2022-12-18T01:47:28;-9.00;41.50
4548;DHT22;2286;51.570;7.090;2022-12-18T01:49:59;-8.90;48.40
4548;DHT22;2286;51.570;7.090;2022-12-18T01:52:29;-9.00;44.10
4548;DHT22;2286;51.570;7.090;2022-12-18T01:54:57;-9.00;39.60
4548;DHT22;2286;51.570;7.090;2022-12-18T01:57:26;-9.00;43.70
4548;DHT22;2286;51.570;7.090;2022-12-18T01:59:59;-8.90;99.90
4548;DHT22;2286;51.570;7.090;2022-12-18T02:02:26;-8.90;88.70
4548;DHT22;2286;51.570;7.090;2022-12-18T02:04:54;-8.90;99.90
4548;DHT22;2286;51.570;7.090;2022-12-18T02:07:27;-9.00;90.50
4548;DHT22;2286;51.570;7.090;2022-12-18T02:10:00;-9.10;1.00
4548;DHT22;2286;51.570;7.090;2022-12-18T02:12:34;-9.20;1.00
4548;DHT22;2286;51.570;7.090;2022-12-18T02:15:09;-9.10;1.00
4548;DHT22;2286;51.570;7.090;2022-12-18T02:17:42;-9.10;1.00
4548;DHT22;2286;51.570;7.090;2022-12-18T02:20:14;-9.10;1.00
4548;DHT22;2286;51.570;7.090;2022-12-18T02:22:51;-9.00;1.00
4548;DHT22;2286;51.570;7.090;2022-12-18T02:25:41;-9.00;62.00
4548;DHT22;2286;51.570;7.090;2022-12-18T02:28:15;-9.00;99.90
4548;DHT22;2286;51.570;7.090;2022-12-18T02:30:44;-8.90;99.90
4548;DHT22;2286;51.570;7.090;2022-12-18T02:33:13;-8.90;99.90
4548;DHT22;2286;51.570;7.090;2022-12-18T02:35:42;-8.90;99.90
4548;DHT22;2286;51.570;7.090;2022-12-18T02:38:11;-8.90;99.90
4548;DHT22;2286;51.570;7.090;2022-12-18T02:40:38;-9.00;82.90
4548;DHT22;2286;51.570;7.090;2022-12-18T02:43:10;-9.00;99.90
4548;DHT22;2286;51.570;7.090;2022-12-18T02:45:46;-8.90;99.90
4548;DHT22;2286;51.570;7.090;2022-12-18T02:48:14;-8.80;99.90
4548;DHT22;2286;51.570;7.090;2022-12-18T02:50:45;-8.80;99.90
4548;DHT22;2286;51.570;7.090;2022-12-18T02:53:18;-8.90;99.90
4548;DHT22;2286;51.570;7.090;2022-12-18T02:56:01;-8.90;99.90
4548;DHT22;2286;51.570;7.090;2022-12-18T02:58:35;-8.90;99.90
4548;DHT22;2286;51.570;7.090;2022-12-18T03:01:11;-8.90;99.90
4548;DHT22;2286;51.570;7.090;2022-12-18T03:03:41;-9.00;99.90
4548;DHT22;2286;51.570;7.090;2022-12-18T03:06:12;-8.90;99.90
4548;DHT22;2286;51.570;7.090;2022-12-18T03:08:44;-9.00;99.90
4548;DHT22;2286;51.570;7.090;2022-12-18T03:11:13;-9.00;42.50
4548;DHT22;2286;51.570;7.090;2022-12-18T03:13:44;-9.00;98.40
4548;DHT22;2286;51.570;7.090;2022-12-18T03:16:17;-9.00;86.40
4548;DHT22;2286;51.570;7.090;2022-12-18T03:18:48;-8.90;99.90
4548;DHT22;2286;51.570;7.090;2022-12-18T03:21:19;-8.80;99.90
4548;DHT22;2286;51.570;7.090;2022-12-18T03:23:49;-8.80;99.90
4548;DHT22;2286;51.570;7.090;2022-12-18T03:26:19;-8.90;99.90
4548;DHT22;2286;51.570;7.090;2022-12-18T03:28:52;-8.90;99.90
4548;DHT22;2286;51.570;7.090;2022-12-18T03:31:31;-8.90;99.90
4548;DHT22;2286;51.570;7.090;2022-12-18T03:34:02;-8.80;99.90
4548;DHT22;2286;51.570;7.090;2022-12-18T03:36:31;-8.80;99.90
4548;DHT22;2286;51.570;7.090;2022-12-18T03:38:58;-8.90;99.90
4548;DHT22;2286;51.570;7.090;2022-12-18T03:41:29;-8.90;99.90
4548;DHT22;2286;51.570;7.090;2022-12-18T03:44:02;-8.90;99.90
4548;DHT22;2286;51.570;7.090;2022-12-18T03:46:40;-8.80;99.90
4548;DHT22;2286;51.570;7.090;2022-12-18T03:49:10;-8.80;99.90
4548;DHT22;2286;51.570;7.090;2022-12-18T03:51:42;-8.80;99.90
4548;DHT22;2286;51.570;7.090;2022-12-18T03:54:11;-8.80;99.90
4548;DHT22;2286;51.570;7.090;2022-12-18T03:56:40;-8.90;99.90
4548;DHT22;2286;51.570;7.090;2022-12-18T03:59:08;-8.90;99.90
4548;DHT22;2286;51.570;7.090;2022-12-18T04:01:40;-8.90;99.90
4548;DHT22;2286;51.570;7.090;2022-12-18T04:04:10;-8.90;99.90
4548;DHT22;2286;51.570;7.090;2022-12-18T04:06:38;-8.90;99.90
4548;DHT22;2286;51.570;7.090;2022-12-18T04:09:07;-8.90;99.90
4548;DHT22;2286;51.570;7.090;2022-12-18T04:11:34;-8.90;99.90
4548;DHT22;2286;51.570;7.090;2022-12-18T04:14:01;-8.90;99.90
4548;DHT22;2286;51.570;7.090;2022-12-18T04:16:28;-8.80;99.90
4548;DHT22;2286;51.570;7.090;2022-12-18T04:18:57;-8.90;99.90
4548;DHT22;2286;51.570;7.090;2022-12-18T04:21:24;-8.90;99.90
4548;DHT22;2286;51.570;7.090;2022-12-18T04:23:51;-8.90;99.90
4548;DHT22;2286;51.570;7.090;2022-12-18T04:26:18;-8.90;99.90
4548;DHT22;2286;51.570;7.090;2022-12-18T04:28:45;-8.90;99.90
4548;DHT22;2286;51.570;7.090;2022-12-18T04:31:13;-8.90;99.90
4548;DHT22;2286;51.570;7.090;2022-12-18T04:33:40;-8.90;99.90
4548;DHT22;2286;51.570;7.090;2022-12-18T04:36:08;-8.90;1.00
4548;DHT22;2286;51.570;7.090;2022-12-18T04:38:37;-8.90;1.00
4548;DHT22;2286;51.570;7.090;2022-12-18T04:41:05;-8.90;1.00
4548;DHT22;2286;51.570;7.090;2022-12-18T04:43:32;-8.90;1.00
4548;DHT22;2286;51.570;7.090;2022-12-18T04:46:03;-8.90;1.00
4548;DHT22;2286;51.570;7.090;2022-12-18T04:48:31;-9.00;1.00
4548;DHT22;2286;51.570;7.090;2022-12-18T04:50:58;-9.00;1.00
4548;DHT22;2286;51.570;7.090;2022-12-18T04:53:26;-9.00;1.00
4548;DHT22;2286;51.570;7.090;2022-12-18T04:56:03;-9.10;1.00
4548;DHT22;2286;51.570;7.090;2022-12-18T04:58:30;-9.10;1.00
4548;DHT22;2286;51.570;7.090;2022-12-18T05:00:57;-9.10;99.90
4548;DHT22;2286;51.570;7.090;2022-12-18T05:03:24;-9.10;1.00
4548;DHT22;2286;51.570;7.090;2022-12-18T05:05:51;-9.10;1.00
4548;DHT22;2286;51.570;7.090;2022-12-18T05:08:19;-9.10;1.00
4548;DHT22;2286;51.570;7.090;2022-12-18T05:10:47;-9.10;1.00
4548;DHT22;2286;51.570;7.090;2022-12-18T05:13:14;-9.10;1.00
4548;DHT22;2286;51.570;7.090;2022-12-18T05:15:41;-9.10;1.00
4548;DHT22;2286;51.570;7.090;2022-12-18T05:18:08;-9.10;1.00
4548;DHT22;2286;51.570;7.090;2022-12-18T05:20:35;-9.10;1.00
4548;DHT22;2286;51.570;7.090;2022-12-18T05:23:02;-9.10;1.00
4548;DHT22;2286;51.570;7.090;2022-12-18T05:25:29;-9.10;1.00
4548;DHT22;2286;51.570;7.090;2022-12-18T05:27:57;-9.20;1.00
4548;DHT22;2286;51.570;7.090;2022-12-18T05:30:24;-9.20;1.00
4548;DHT22;2286;51.570;7.090;2022-12-18T05:32:51;-9.20;99.90
4548;DHT22;2286;51.570;7.090;2022-12-18T05:35:19;-9.20;99.90
4548;DHT22;2286;51.570;7.090;2022-12-18T05:37:46;-9.20;1.00
4548;DHT22;2286;51.570;7.090;2022-12-18T05:40:14;-9.20;99.90
4548;DHT22;2286;51.570;7.090;2022-12-18T05:42:41;-9.20;99.90
4548;DHT22;2286;51.570;7.090;2022-12-18T05:45:09;-9.20;99.90
4548;DHT22;2286;51.570;7.090;2022-12-18T05:47:36;-9.10;99.90
4548;DHT22;2286;51.570;7.090;2022-12-18T05:50:04;-9.20;99.90
4548;DHT22;2286;51.570;7.090;2022-12-18T05:52:32;-9.20;99.90
4548;DHT22;2286;51.570;7.090;2022-12-18T05:54:59;-9.20;99.90
4548;DHT22;2286;51.570;7.090;2022-12-18T05:57:27;-9.20;99.90
4548;DHT22;2286;51.570;7.090;2022-12-18T05:59:54;-9.20;99.90
4548;DHT22;2286;51.570;7.090;2022-12-18T06:02:22;-9.20;99.90
4548;DHT22;2286;51.570;7.090;2022-12-18T06:04:49;-9.20;99.90
4548;DHT22;2286;51.570;7.090;2022-12-18T06:07:16;-9.20;99.90
4548;DHT22;2286;51.570;7.090;2022-12-18T06:09:44;-9.20;99.90
4548;DHT22;2286;51.570;7.090;2022-12-18T06:12:11;-9.20;99.90
4548;DHT22;2286;51.570;7.090;2022-12-18T06:14:37;-9.10;99.90
4548;DHT22;2286;51.570;7.090;2022-12-18T06:17:05;-9.10;99.90
4548;DHT22;2286;51.570;7.090;2022-12-18T06:19:33;-9.10;99.90
4548;DHT22;2286;51.570;7.090;2022-12-18T06:22:00;-9.00;99.90
4548;DHT22;2286;51.570;7.090;2022-12-18T06:24:27;-9.10;1.00
4548;DHT22;2286;51.570;7.090;2022-12-18T06:26:54;-9.00;1.00
4548;DHT22;2286;51.570;7.090;2022-12-18T06:29:21;-9.00;1.00
4548;DHT22;2286;51.570;7.090;2022-12-18T06:31:48;-9.00;1.00
4548;DHT22;2286;51.570;7.090;2022-12-18T06:34:15;-9.00;1.00
4548;DHT22;2286;51.570;7.090;2022-12-18T06:36:43;-9.00;1.00
4548;DHT22;2286;51.570;7.090;2022-12-18T06:39:10;-9.00;1.00
4548;DHT22;2286;51.570;7.090;2022-12-18T06:41:37;-9.00;1.00
4548;DHT22;2286;51.570;7.090;2022-12-18T06:44:04;-9.00;1.00
4548;DHT22;2286;51.570;7.090;2022-12-18T06:46:32;-9.00;1.00
4548;DHT22;2286;51.570;7.090;2022-12-18T06:48:59;-9.00;99.90
4548;DHT22;2286;51.570;7.090;2022-12-18T06:51:26;-9.00;99.90
4548;DHT22;2286;51.570;7.090;2022-12-18T06:53:55;-9.00;99.90
4548;DHT22;2286;51.570;7.090;2022-12-18T06:56:22;-9.00;99.90
4548;DHT22;2286;51.570;7.090;2022-12-18T06:58:49;-9.00;99.90
4548;DHT22;2286;51.570;7.090;2022-12-18T07:01:16;-9.10;99.90
4548;DHT22;2286;51.570;7.090;2022-12-18T07:03:43;-9.10;99.90
4548;DHT22;2286;51.570;7.090;2022-12-18T07:06:14;-9.10;99.90
4548;DHT22;2286;51.570;7.090;2022-12-18T07:08:41;-9.00;99.90
4548;DHT22;2286;51.570;7.090;2022-12-18T07:11:10;-9.10;99.90
4548;DHT22;2286;51.570;7.090;2022-12-18T07:13:37;-9.10;99.90
4548;DHT22;2286;51.570;7.090;2022-12-18T07:16:06;-9.20;99.90
4548;DHT22;2286;51.570;7.090;2022-12-18T07:18:34;-9.10;99.90
4548;DHT22;2286;51.570;7.090;2022-12-18T07:21:03;-9.10;99.90
4548;DHT22;2286;51.570;7.090;2022-12-18T07:23:32;-9.10;99.90
4548;DHT22;2286;51.570;7.090;2022-12-18T07:26:01;-9.00;1.00
4548;DHT22;2286;51.570;7.090;2022-12-18T07:28:31;-9.10;1.00
4548;DHT22;2286;51.570;7.090;2022-12-18T07:30:58;-9.00;1.00
4548;DHT22;2286;51.570;7.090;2022-12-18T07:33:25;-9.00;1.00
4548;DHT22;2286;51.570;7.090;2022-12-18T07:35:52;-9.00;1.00
4548;DHT22;2286;51.570;7.090;2022-12-18T07:38:19;-9.00;1.00
4548;DHT22;2286;51.570;7.090;2022-12-18T07:40:47;-9.00;1.00
4548;DHT22;2286;51.570;7.090;2022-12-18T07:43:14;-9.00;1.00
4548;DHT22;2286;51.570;7.090;2022-12-18T07:45:42;-8.90;1.00
4548;DHT22;2286;51.570;7.090;2022-12-18T07:48:10;-8.90;1.00
4548;DHT22;2286;51.570;7.090;2022-12-18T07:50:37;-8.90;1.00
4548;DHT22;2286;51.570;7.090;2022-12-18T07:53:05;-8.90;1.00
4548;DHT22;2286;51.570;7.090;2022-12-18T07:55:32;-8.80;1.00
4548;DHT22;2286;51.570;7.090;2022-12-18T07:58:01;-8.70;1.00
4548;DHT22;2286;51.570;7.090;2022-12-18T08:00:28;-8.70;1.00
4548;DHT22;2286;51.570;7.090;2022-12-18T08:02:57;-8.60;1.00
4548;DHT22;2286;51.570;7.090;2022-12-18T08:05:24;-8.50;1.00
4548;DHT22;2286;51.570;7.090;2022-12-18T08:07:51;-8.40;1.00
4548;DHT22;2286;51.570;7.090;2022-12-18T08:10:18;-8.30;1.00
4548;DHT22;2286;51.570;7.090;2022-12-18T08:12:48;-8.30;1.00
4548;DHT22;2286;51.570;7.090;2022-12-18T08:15:15;-8.20;1.00
4548;DHT22;2286;51.570;7.090;2022-12-18T08:17:42;-8.20;1.00
4548;DHT22;2286;51.570;7.090;2022-12-18T08:20:11;-8.10;1.00
4548;DHT22;2286;51.570;7.090;2022-12-18T08:22:39;-8.10;1.00
4548;DHT22;2286;51.570;7.090;2022-12-18T08:25:07;-8.00;1.00
4548;DHT22;2286;51.570;7.090;2022-12-18T08:27:34;-8.00;1.00
4548;DHT22;2286;51.570;7.090;2022-12-18T08:30:01;-7.90;1.00
4548;DHT22;2286;51.570;7.090;2022-12-18T08:32:30;-7.80;1.00
4548;DHT22;2286;51.570;7.090;2022-12-18T08:34:58;-7.70;8.80
4548;DHT22;2286;51.570;7.090;2022-12-18T08:37:26;-7.60;24.50
4548;DHT22;2286;51.570;7.090;2022-12-18T08:39:53;-7.50;40.90
4548;DHT22;2286;51.570;7.090;2022-12-18T08:42:21;-7.40;67.80
4548;DHT22;2286;51.570;7.090;2022-12-18T08:45:05;-7.30;92.50
4548;DHT22;2286;51.570;7.090;2022-12-18T08:47:33;-7.20;99.90
4548;DHT22;2286;51.570;7.090;2022-12-18T08:50:00;-7.10;99.90
4548;DHT22;2286;51.570;7.090;2022-12-18T08:52:28;-7.00;99.90
4548;DHT22;2286;51.570;7.090;2022-12-18T08:54:55;-6.90;99.90
4548;DHT22;2286;51.570;7.090;2022-12-18T08:57:22;-6.80;99.90
4548;DHT22;2286;51.570;7.090;2022-12-18T08:59:49;-6.70;99.90
4548;DHT22;2286;51.570;7.090;2022-12-18T09:02:16;-6.60;99.90
4548;DHT22;2286;51.570;7.090;2022-12-18T09:04:43;-6.50;99.90
4548;DHT22;2286;51.570;7.090;2022-12-18T09:07:10;-6.40;99.90
4548;DHT22;2286;51.570;7.090;2022-12-18T09:09:38;-6.30;99.90
4548;DHT22;2286;51.570;7.090;2022-12-18T09:12:05;-6.10;99.90
4548;DHT22;2286;51.570;7.090;2022-12-18T09:14:32;-6.00;99.90
4548;DHT22;2286;51.570;7.090;2022-12-18T09:16:59;-5.80;99.90
4548;DHT22;2286;51.570;7.090;2022-12-18T09:19:26;-5.70;99.90
4548;DHT22;2286;51.570;7.090;2022-12-18T09:21:53;-5.60;99.90
4548;DHT22;2286;51.570;7.090;2022-12-18T09:24:20;-5.50;99.90
4548;DHT22;2286;51.570;7.090;2022-12-18T09:26:53;-5.40;99.90
4548;DHT22;2286;51.570;7.090;2022-12-18T09:29:20;-5.40;99.90
4548;DHT22;2286;51.570;7.090;2022-12-18T09:31:48;-5.30;99.90
4548;DHT22;2286;51.570;7.090;2022-12-18T09:34:15;-5.20;99.90
4548;DHT22;2286;51.570;7.090;2022-12-18T09:36:42;-5.10;99.90
4548;DHT22;2286;51.570;7.090;2022-12-18T09:39:09;-5.00;99.90
4548;DHT22;2286;51.570;7.090;2022-12-18T09:41:43;-4.90;99.90
4548;DHT22;2286;51.570;7.090;2022-12-18T09:44:18;-4.80;99.90
4548;DHT22;2286;51.570;7.090;2022-12-18T09:46:48;-4.70;99.90
4548;DHT22;2286;51.570;7.090;2022-12-18T09:49:19;-4.50;99.90
4548;DHT22;2286;51.570;7.090;2022-12-18T09:51:52;-4.40;99.90
4548;DHT22;2286;51.570;7.090;2022-12-18T09:54:24;-4.30;99.90
4548;DHT22;2286;51.570;7.090;2022-12-18T09:56:52;-4.10;99.90
4548;DHT22;2286;51.570;7.090;2022-12-18T09:59:25;-4.00;99.90
4548;DHT22;2286;51.570;7.090;2022-12-18T10:01:53;-3.80;99.90
4548;DHT22;2286;51.570;7.090;2022-12-18T10:04:20;-3.70;99.90
4548;DHT22;2286;51.570;7.090;2022-12-18T10:06:52;-3.60;99.90
4548;DHT22;2286;51.570;7.090;2022-12-18T10:09:28;-3.40;99.90
4548;DHT22;2286;51.570;7.090;2022-12-18T10:12:03;-3.20;99.90
4548;DHT22;2286;51.570;7.090;2022-12-18T10:14:42;-3.10;99.90
4548;DHT22;2286;51.570;7.090;2022-12-18T10:17:18;-3.00;99.90
4548;DHT22;2286;51.570;7.090;2022-12-18T10:19:51;-2.90;99.90
4548;DHT22;2286;51.570;7.090;2022-12-18T10:22:36;-2.70;99.90
4548;DHT22;2286;51.570;7.090;2022-12-18T10:25:15;-2.60;99.90
4548;DHT22;2286;51.570;7.090;2022-12-18T10:27:44;-2.50;99.90
4548;DHT22;2286;51.570;7.090;2022-12-18T10:30:15;-2.30;99.90
4548;DHT22;2286;51.570;7.090;2022-12-18T10:32:42;-2.20;99.90
4548;DHT22;2286;51.570;7.090;2022-12-18T10:35:17;-2.10;99.90
4548;DHT22;2286;51.570;7.090;2022-12-18T10:38:00;-2.00;99.90
4548;DHT22;2286;51.570;7.090;2022-12-18T10:40:27;-1.90;99.90
4548;DHT22;2286;51.570;7.090;2022-12-18T10:43:05;-1.80;99.90
4548;DHT22;2286;51.570;7.090;2022-12-18T10:45:34;-1.70;99.90
4548;DHT22;2286;51.570;7.090;2022-12-18T10:48:01;-1.60;99.90
4548;DHT22;2286;51.570;7.090;2022-12-18T10:50:30;-1.50;99.90
4548;DHT22;2286;51.570;7.090;2022-12-18T10:52:59;-1.40;99.90
4548;DHT22;2286;51.570;7.090;2022-12-18T10:55:32;-1.30;99.90
4548;DHT22;2286;51.570;7.090;2022-12-18T10:58:16;-1.10;99.90
4548;DHT22;2286;51.570;7.090;2022-12-18T11:00:45;-1.00;99.90
4548;DHT22;2286;51.570;7.090;2022-12-18T11:03:34;-0.90;99.90
4548;DHT22;2286;51.570;7.090;2022-12-18T11:06:04;-0.90;99.90
4548;DHT22;2286;51.570;7.090;2022-12-18T11:08:32;-0.80;99.90
4548;DHT22;2286;51.570;7.090;2022-12-18T11:10:59;-0.80;99.90
4548;DHT22;2286;51.570;7.090;2022-12-18T11:13:27;-0.70;99.90
4548;DHT22;2286;51.570;7.090;2022-12-18T11:15:57;-0.70;99.90
4548;DHT22;2286;51.570;7.090;2022-12-18T11:18:27;-0.70;99.90
4548;DHT22;2286;51.570;7.090;2022-12-18T11:20:56;-0.70;99.90
4548;DHT22;2286;51.570;7.090;2022-12-18T11:23:24;-0.80;99.90
4548;DHT22;2286;51.570;7.090;2022-12-18T11:25:57;-0.70;99.90
4548;DHT22;2286;51.570;7.090;2022-12-18T11:28:35;-0.60;99.90
4548;DHT22;2286;51.570;7.090;2022-12-18T11:31:17;-0.60;99.90
4548;DHT22;2286;51.570;7.090;2022-12-18T11:33:46;-0.50;99.90
4548;DHT22;2286;51.570;7.090;2022-12-18T11:36:16;-0.60;99.90
4548;DHT22;2286;51.570;7.090;2022-12-18T11:38:44;-0.60;99.90
4548;DHT22;2286;51.570;7.090;2022-12-18T11:41:16;-0.50;99.90
4548;DHT22;2286;51.570;7.090;2022-12-18T11:43:50;-0.40;99.90
4548;DHT22;2286;51.570;7.090;2022-12-18T11:46:26;-0.40;99.90
4548;DHT22;2286;51.570;7.090;2022-12-18T11:48:58;-0.40;99.90
4548;DHT22;2286;51.570;7.090;2022-12-18T11:51:29;-0.30;99.90
4548;DHT22;2286;51.570;7.090;2022-12-18T11:54:00;-0.30;99.90
4548;DHT22;2286;51.570;7.090;2022-12-18T11:56:32;-0.40;99.90
4548;DHT22;2286;51.570;7.090;2022-12-18T11:59:07;-0.40;99.90
4548;DHT22;2286;51.570;7.090;2022-12-18T12:01:43;-0.30;99.90
4548;DHT22;2286;51.570;7.090;2022-12-18T12:07:22;-0.20;99.90
4548;DHT22;2286;51.570;7.090;2022-12-18T12:10:00;-0.20;99.90
4548;DHT22;2286;51.570;7.090;2022-12-18T12:12:36;-0.10;99.90
4548;DHT22;2286;51.570;7.090;2022-12-18T12:15:20;0.00;99.90
4548;DHT22;2286;51.570;7.090;2022-12-18T12:17:55;-0.10;99.90
4548;DHT22;2286;51.570;7.090;2022-12-18T12:20:33;0.00;99.90
4548;DHT22;2286;51.570;7.090;2022-12-18T12:23:08;0.00;99.90
4548;DHT22;2286;51.570;7.090;2022-12-18T12:25:41;0.00;99.90
4548;DHT22;2286;51.570;7.090;2022-12-18T12:28:19;0.00;99.90
4548;DHT22;2286;51.570;7.090;2022-12-18T12:30:56;0.00;99.90
4548;DHT22;2286;51.570;7.090;2022-12-18T12:33:37;0.10;99.90
4548;DHT22;2286;51.570;7.090;2022-12-18T12:36:15;0.10;99.90
4548;DHT22;2286;51.570;7.090;2022-12-18T12:38:46;0.10;99.90
4548;DHT22;2286;51.570;7.090;2022-12-18T12:41:18;0.20;99.90
4548;DHT22;2286;51.570;7.090;2022-12-18T12:44:07;0.10;99.90
4548;DHT22;2286;51.570;7.090;2022-12-18T12:46:39;0.10;99.90
4548;DHT22;2286;51.570;7.090;2022-12-18T12:49:11;0.10;99.90
4548;DHT22;2286;51.570;7.090;2022-12-18T12:51:43;0.10;99.90
4548;DHT22;2286;51.570;7.090;2022-12-18T12:54:15;0.10;99.90
4548;DHT22;2286;51.570;7.090;2022-12-18T12:56:50;0.10;99.90
4548;DHT22;2286;51.570;7.090;2022-12-18T12:59:24;0.10;99.90
4548;DHT22;2286;51.570;7.090;2022-12-18T13:01:58;0.20;99.90
4548;DHT22;2286;51.570;7.090;2022-12-18T13:04:35;0.10;99.90
4548;DHT22;2286;51.570;7.090;2022-12-18T13:07:09;0.10;99.90
4548;DHT22;2286;51.570;7.090;2022-12-18T13:12:53;0.10;99.90
4548;DHT22;2286;51.570;7.090;2022-12-18T13:15:25;0.00;99.90
4548;DHT22;2286;51.570;7.090;2022-12-18T13:18:13;0.00;99.90
4548;DHT22;2286;51.570;7.090;2022-12-18T13:20:43;0.00;99.90
4548;DHT22;2286;51.570;7.090;2022-12-18T13:23:27;0.00;99.90
4548;DHT22;2286;51.570;7.090;2022-12-18T13:25:55;-0.10;99.90
4548;DHT22;2286;51.570;7.090;2022-12-18T13:28:51;0.00;99.90
4548;DHT22;2286;51.570;7.090;2022-12-18T13:31:58;-0.10;99.90
4548;DHT22;2286;51.570;7.090;2022-12-18T13:34:26;-0.10;99.90
4548;DHT22;2286;51.570;7.090;2022-12-18T13:36:56;-0.10;99.90
4548;DHT22;2286;51.570;7.090;2022-12-18T13:39:32;-0.10;99.90
4548;DHT22;2286;51.570;7.090;2022-12-18T13:45:42;-0.10;99.90
4548;DHT22;2286;51.570;7.090;2022-12-18T13:48:19;-0.20;99.90
4548;DHT22;2286;51.570;7.090;2022-12-18T13:50:49;-0.20;99.90
4548;DHT22;2286;51.570;7.090;2022-12-18T13:53:21;-0.20;99.90
4548;DHT22;2286;51.570;7.090;2022-12-18T13:55:50;-0.30;99.90
4548;DHT22;2286;51.570;7.090;2022-12-18T13:58:17;-0.30;99.90
4548;DHT22;2286;51.570;7.090;2022-12-18T14:00:45;-0.30;99.90
4548;DHT22;2286;51.570;7.090;2022-12-18T14:03:21;-0.30;99.90
4548;DHT22;2286;51.570;7.090;2022-12-18T14:05:54;-0.30;99.90
4548;DHT22;2286;51.570;7.090;2022-12-18T14:08:27;-0.40;99.90
4548;DHT22;2286;51.570;7.090;2022-12-18T14:10:56;-0.40;99.90
4548;DHT22;2286;51.570;7.090;2022-12-18T14:13:27;-0.40;99.90
4548;DHT22;2286;51.570;7.090;2022-12-18T14:15:57;-0.50;99.90
4548;DHT22;2286;51.570;7.090;2022-12-18T14:18:38;-0.40;99.90
4548;DHT22;2286;51.570;7.090;2022-12-18T14:21:20;-0.40;99.90
4548;DHT22;2286;51.570;7.090;2022-12-18T14:23:48;-0.40;99.90
4548;DHT22;2286;51.570;7.090;2022-12-18T14:26:23;-0.40;99.90
4548;DHT22;2286;51.570;7.090;2022-12-18T14:28:52;-0.30;99.90
4548;DHT22;2286;51.570;7.090;2022-12-18T14:31:24;-0.40;99.90
4548;DHT22;2286;51.570;7.090;2022-12-18T14:33:51;-0.40;99.90
4548;DHT22;2286;51.570;7.090;2022-12-18T14:36:20;-0.30;99.90
4548;DHT22;2286;51.570;7.090;2022-12-18T14:38:50;-0.30;99.90
4548;DHT22;2286;51.570;7.090;2022-12-18T14:41:18;-0.30;99.90
4548;DHT22;2286;51.570;7.090;2022-12-18T14:43:47;-0.20;99.90
4548;DHT22;2286;51.570;7.090;2022-12-18T14:46:34;-0.30;99.90
4548;DHT22;2286;51.570;7.090;2022-12-18T14:49:04;-0.30;99.90
4548;DHT22;2286;51.570;7.090;2022-12-18T14:51:33;-0.30;99.90
4548;DHT22;2286;51.570;7.090;2022-12-18T14:54:02;-0.40;99.90
4548;DHT22;2286;51.570;7.090;2022-12-18T14:56:34;-0.40;99.90
4548;DHT22;2286;51.570;7.090;2022-12-18T14:59:03;-0.50;99.90
4548;DHT22;2286;51.570;7.090;2022-12-18T15:01:35;-0.50;99.90
4548;DHT22;2286;51.570;7.090;2022-12-18T15:04:04;-0.50;99.90
4548;DHT22;2286;51.570;7.090;2022-12-18T15:06:34;-0.50;99.90
4548;DHT22;2286;51.570;7.090;2022-12-18T15:09:03;-0.50;99.90
4548;DHT22;2286;51.570;7.090;2022-12-18T15:11:43;-0.50;99.90
4548;DHT22;2286;51.570;7.090;2022-12-18T15:14:38;-0.50;99.90
4548;DHT22;2286;51.570;7.090;2022-12-18T15:17:16;-0.50;99.90
4548;DHT22;2286;51.570;7.090;2022-12-18T15:19:45;-0.60;99.90
4548;DHT22;2286;51.570;7.090;2022-12-18T15:22:20;-0.60;99.90
4548;DHT22;2286;51.570;7.090;2022-12-18T15:24:47;-0.50;99.90
4548;DHT22;2286;51.570;7.090;2022-12-18T15:27:30;-0.50;44.30
4548;DHT22;2286;51.570;7.090;2022-12-18T15:30:19;-0.50;1.00
4548;DHT22;2286;51.570;7.090;2022-12-18T15:32:48;-0.60;1.00
4548;DHT22;2286;51.570;7.090;2022-12-18T15:35:18;-0.60;1.00
4548;DHT22;2286;51.570;7.090;2022-12-18T15:37:45;-0.60;1.00
4548;DHT22;2286;51.570;7.090;2022-12-18T15:40:14;-0.60;70.50
4548;DHT22;2286;51.570;7.090;2022-12-18T15:42:42;-0.60;1.00
4548;DHT22;2286;51.570;7.090;2022-12-18T15:45:27;-0.60;1.00
4548;DHT22;2286;51.570;7.090;2022-12-18T15:47:55;-0.60;99.90
4548;DHT22;2286;51.570;7.090;2022-12-18T15:50:23;-0.60;99.90
4548;DHT22;2286;51.570;7.090;2022-12-18T15:52:52;-0.60;99.90
4548;DHT22;2286;51.570;7.090;2022-12-18T15:55:21;-0.60;99.90
4548;DHT22;2286;51.570;7.090;2022-12-18T15:58:06;-0.70;99.90
4548;DHT22;2286;51.570;7.090;2022-12-18T16:00:34;-0.70;42.80
4548;DHT22;2286;51.570;7.090;2022-12-18T16:03:03;-0.70;1.00
4548;DHT22;2286;51.570;7.090;2022-12-18T16:05:32;-0.70;1.00
4548;DHT22;2286;51.570;7.090;2022-12-18T16:07:59;-0.70;1.00
4548;DHT22;2286;51.570;7.090;2022-12-18T16:10:26;-0.70;99.90
4548;DHT22;2286;51.570;7.090;2022-12-18T16:12:53;-0.70;1.00
4548;DHT22;2286;51.570;7.090;2022-12-18T16:15:20;-0.70;99.90
4548;DHT22;2286;51.570;7.090;2022-12-18T16:17:47;-0.70;2.70
4548;DHT22;2286;51.570;7.090;2022-12-18T16:20:18;-0.60;1.00
4548;DHT22;2286;51.570;7.090;2022-12-18T16:22:46;-0.60;1.00
4548;DHT22;2286;51.570;7.090;2022-12-18T16:25:22;-0.60;99.90
4548;DHT22;2286;51.570;7.090;2022-12-18T16:27:50;-0.60;99.90
4548;DHT22;2286;51.570;7.090;2022-12-18T16:30:20;-0.60;99.90
4548;DHT22;2286;51.570;7.090;2022-12-18T16:32:47;-0.60;1.00
4548;DHT22;2286;51.570;7.090;2022-12-18T16:35:16;-0.60;1.00
4548;DHT22;2286;51.570;7.090;2022-12-18T16:37:44;-0.50;99.90